LDZALIBD

Guest
Details From LDZA - Zagreb
To LIBD - Bari Palese Macchie
Flight Number -
Tags generated
Created
Modified
Stats Distance 282 nm / 522 km
Max Altitude 33,300 ft / 10,150 m
Waypoints 5
Social Downloads 0
Likes 0
Share VATSIM

Download

Looking for another format? Having issues loading an existing format? Contact us
Advertisement - Login to hide

Notes

Basic altitude profile: - Ascent Rate: 2500ft/min - Ascent Speed: 250kts - Cruise Altitude: 35000ft - Cruise Speed: 420kts - Descent Rate: 1500ft/min - Descent Speed: 250kts

Route

LDZA SIRMI UM725 SPL UL862 RILIM LIBD

ID Type Via Altitude Latitude Longitude Leg Dist Tot Dist Heading (true) Name
O LDZA APT - 0 ft / 0 m 45.74189˚ 16.06720˚ - 0 nm - Zagreb
SIRMI FIX - 33,300 ft / 10,150 m 44.15000˚ 16.30361˚ 96 nm 96 nm 174° / 174° -
SPL VOR UM725 (AWY-HI) 31,300 ft / 9,540 m 43.49658˚ 16.30472˚ 39 nm 135 nm 180° / 180° SPLIT VOR-DME
RILIM FIX UL862 (AWY-HI) 19,500 ft / 5,944 m 42.65861˚ 16.81556˚ 55 nm 190 nm 156° / 156° -
O LIBD APT - 0 ft / 0 m 41.13787˚ 16.75832˚ 91 nm 281 nm 182° / 182° Bari Palese Macchie

Altitude Profile

Advertisement - Login to hide

Weather


0- 5 10 15 20 25 30 35+ Temperature / ° C

Clouds and Precipitation
Forecast for 2017-12-12 00:00 UTC. Updated 7 minutes ago

Ground ~20,000 ft ~40,000 ft Winds

LDZA

Details ICAO LDZA (ZAG)
Name Zagreb
Region Croatia
Timezone Europe/Zagreb (UTC+1.0)
Stats Elevation 353 ft / 108 m (AMSL)
Location 45.741890° 16.067200°
Runways 1
Magnetic Variation 3.958° E

METAR

LDZA 111900Z 19015G25KT 120V220 CAVOK 15/06 Q0999 NOSIG

Decode

TAF

TAF LDZA 111725Z 1118/1218 20015KT CAVOK TX16/1212Z TN08/1217Z TEMPO 1118/1120 20025G35KT PROB30 TEMPO 1120/1208 20020G30KT BECMG 1210/1212 23010KT BECMG 1213/1215 32010KT TEMPO 1213/1218 RA BKN014 PROB40 TEMPO 1213/1216 4000 SHRA SCT020TCU BKN030

Decode

Departure Runways

ID Width Length Bearing (true) Bearing (mag) Surface Threshold Offset Overrun Length
05 148 ft / 45 m 10,659 ft / 3,249 m 46.69° 42.73° Asphalt 0 ft / 0 m 195 ft / 59 m
23 148 ft / 45 m 10,659 ft / 3,249 m 226.71° 222.75° Asphalt 0 ft / 0 m 195 ft / 59 m

LIBD

Details ICAO LIBD (BRI)
Name Bari Palese Macchie
Region Italy
Timezone Europe/Rome (UTC+1.0)
Stats Elevation 177 ft / 54 m (AMSL)
Location 41.137865° 16.758318°
Runways 1
Magnetic Variation 3.736° E

METAR

LIBD 111850Z 17005KT 140V210 CAVOK 14/09 Q1013

Decode

TAF

TAF LIBD 111700Z 1118/1218 17014KT 9999 SCT030= TAF LIBP 111700Z 1118/1218 25018G28KT 9999 FEW040 BKN070 BECMG 1206/1208 25012KT

Decode

Destination Runways

ID Width Length Bearing (true) Bearing (mag) Surface Threshold Offset Overrun Length
07 148 ft / 45 m 9,262 ft / 2,823 m 69.39° 65.65° Asphalt 1,257 ft / 383 m 0 ft / 0 m
25 148 ft / 45 m 9,262 ft / 2,823 m 249.42° 245.68° Asphalt 0 ft / 0 m 194 ft / 59 m

Approach Navaids

Runway Type Ident Frequency Range Bearing (true) Bearing (mag) Slope Elevation
07 Localiser BAP 111.35 MHz 18 nm / 33 km 69.25° 65.51° - 177 ft / 54 m (AMSL)
07 Glidescope BAP 111.35 MHz 10 nm / 19 km 69.25° 65.51° 3.32° 177 ft / 54 m (AMSL)
07 DME BAP 111.35 MHz 18 nm / 33 km - - - 183 ft / 56 m (AMSL)

Popular Alternatives